sensor_id;sensor_type;location;lat;lon;timestamp;P1;durP1;ratioP1;P2;durP2;ratioP2
64487;SDS011;50864;45.050;39.014;2023-05-21T00:01:36;7.40;;;2.72;;
64487;SDS011;50864;45.050;39.014;2023-05-21T00:04:04;6.53;;;2.15;;
64487;SDS011;50864;45.050;39.014;2023-05-21T00:06:33;5.28;;;2.25;;
64487;SDS011;50864;45.050;39.014;2023-05-21T00:09:03;7.25;;;1.98;;
64487;SDS011;50864;45.050;39.014;2023-05-21T00:11:30;12.90;;;2.10;;
64487;SDS011;50864;45.050;39.014;2023-05-21T00:13:56;6.25;;;2.28;;
64487;SDS011;50864;45.050;39.014;2023-05-21T00:16:22;4.95;;;2.08;;
64487;SDS011;50864;45.050;39.014;2023-05-21T00:18:49;3.47;;;2.05;;
64487;SDS011;50864;45.050;39.014;2023-05-21T00:21:15;5.60;;;2.15;;
64487;SDS011;50864;45.050;39.014;2023-05-21T00:26:13;7.03;;;2.33;;
64487;SDS011;50864;45.050;39.014;2023-05-21T00:28:40;5.65;;;2.50;;
64487;SDS011;50864;45.050;39.014;2023-05-21T00:31:06;6.87;;;2.47;;
64487;SDS011;50864;45.050;39.014;2023-05-21T00:33:32;5.55;;;2.30;;
64487;SDS011;50864;45.050;39.014;2023-05-21T00:35:58;4.90;;;2.22;;
64487;SDS011;50864;45.050;39.014;2023-05-21T00:38:24;8.60;;;2.67;;
64487;SDS011;50864;45.050;39.014;2023-05-21T00:40:52;7.32;;;2.20;;
64487;SDS011;50864;45.050;39.014;2023-05-21T00:43:18;9.43;;;2.80;;
64487;SDS011;50864;45.050;39.014;2023-05-21T00:45:44;4.70;;;2.20;;
64487;SDS011;50864;45.050;39.014;2023-05-21T00:48:11;6.75;;;2.22;;
64487;SDS011;50864;45.050;39.014;2023-05-21T00:50:37;8.05;;;2.30;;
64487;SDS011;50864;45.050;39.014;2023-05-21T00:53:04;4.80;;;2.50;;
64487;SDS011;50864;45.050;39.014;2023-05-21T00:55:35;7.70;;;2.62;;
64487;SDS011;50864;45.050;39.014;2023-05-21T00:58:01;7.57;;;2.65;;
64487;SDS011;50864;45.050;39.014;2023-05-21T01:00:30;4.47;;;2.22;;
64487;SDS011;50864;45.050;39.014;2023-05-21T01:02:57;6.68;;;2.40;;
64487;SDS011;50864;45.050;39.014;2023-05-21T01:05:23;6.55;;;2.42;;
64487;SDS011;50864;45.050;39.014;2023-05-21T01:07:49;3.70;;;1.90;;
64487;SDS011;50864;45.050;39.014;2023-05-21T01:10:15;7.50;;;2.95;;
64487;SDS011;50864;45.050;39.014;2023-05-21T01:12:41;5.55;;;2.33;;
64487;SDS011;50864;45.050;39.014;2023-05-21T01:15:08;8.15;;;2.55;;
64487;SDS011;50864;45.050;39.014;2023-05-21T01:17:35;5.97;;;2.20;;
64487;SDS011;50864;45.050;39.014;2023-05-21T01:20:01;6.45;;;2.70;;
64487;SDS011;50864;45.050;39.014;2023-05-21T01:22:34;8.27;;;2.60;;
64487;SDS011;50864;45.050;39.014;2023-05-21T01:25:00;6.57;;;2.58;;
64487;SDS011;50864;45.050;39.014;2023-05-21T01:27:27;5.25;;;2.47;;
64487;SDS011;50864;45.050;39.014;2023-05-21T01:29:53;5.20;;;2.40;;
64487;SDS011;50864;45.050;39.014;2023-05-21T01:32:28;5.37;;;2.85;;
64487;SDS011;50864;45.050;39.014;2023-05-21T01:37:30;7.55;;;2.62;;
64487;SDS011;50864;45.050;39.014;2023-05-21T01:39:59;7.55;;;2.80;;
64487;SDS011;50864;45.050;39.014;2023-05-21T01:42:28;7.40;;;2.50;;
64487;SDS011;50864;45.050;39.014;2023-05-21T01:44:55;6.07;;;2.60;;
64487;SDS011;50864;45.050;39.014;2023-05-21T01:47:22;8.20;;;2.80;;
64487;SDS011;50864;45.050;39.014;2023-05-21T01:49:50;6.65;;;2.60;;
64487;SDS011;50864;45.050;39.014;2023-05-21T01:52:17;3.85;;;2.22;;
64487;SDS011;50864;45.050;39.014;2023-05-21T01:54:42;8.07;;;3.25;;
64487;SDS011;50864;45.050;39.014;2023-05-21T01:57:08;6.20;;;2.70;;
64487;SDS011;50864;45.050;39.014;2023-05-21T01:59:35;9.88;;;2.80;;
64487;SDS011;50864;45.050;39.014;2023-05-21T02:02:01;5.18;;;2.55;;
64487;SDS011;50864;45.050;39.014;2023-05-21T02:04:27;11.10;;;3.15;;
64487;SDS011;50864;45.050;39.014;2023-05-21T02:06:52;6.35;;;2.70;;
64487;SDS011;50864;45.050;39.014;2023-05-21T02:09:19;7.20;;;2.95;;
64487;SDS011;50864;45.050;39.014;2023-05-21T02:11:48;6.43;;;2.85;;
64487;SDS011;50864;45.050;39.014;2023-05-21T02:14:13;5.78;;;2.50;;
64487;SDS011;50864;45.050;39.014;2023-05-21T02:16:39;6.37;;;2.75;;
64487;SDS011;50864;45.050;39.014;2023-05-21T02:19:07;7.18;;;2.30;;
64487;SDS011;50864;45.050;39.014;2023-05-21T02:21:36;5.55;;;2.55;;
64487;SDS011;50864;45.050;39.014;2023-05-21T02:24:01;8.98;;;3.00;;
64487;SDS011;50864;45.050;39.014;2023-05-21T02:26:27;5.07;;;2.70;;
64487;SDS011;50864;45.050;39.014;2023-05-21T02:28:53;8.10;;;3.22;;
64487;SDS011;50864;45.050;39.014;2023-05-21T02:31:19;7.93;;;2.72;;
64487;SDS011;50864;45.050;39.014;2023-05-21T02:33:45;7.32;;;2.33;;
64487;SDS011;50864;45.050;39.014;2023-05-21T02:36:11;5.68;;;2.87;;
64487;SDS011;50864;45.050;39.014;2023-05-21T02:38:40;8.45;;;3.00;;
64487;SDS011;50864;45.050;39.014;2023-05-21T02:41:12;8.23;;;3.03;;
64487;SDS011;50864;45.050;39.014;2023-05-21T02:43:38;8.07;;;2.95;;
64487;SDS011;50864;45.050;39.014;2023-05-21T02:46:05;6.07;;;2.72;;
64487;SDS011;50864;45.050;39.014;2023-05-21T02:48:31;6.85;;;2.85;;
64487;SDS011;50864;45.050;39.014;2023-05-21T02:50:57;13.07;;;3.42;;
64487;SDS011;50864;45.050;39.014;2023-05-21T02:53:23;5.95;;;2.55;;
64487;SDS011;50864;45.050;39.014;2023-05-21T02:55:48;6.32;;;2.70;;
64487;SDS011;50864;45.050;39.014;2023-05-21T02:58:15;6.62;;;2.70;;
64487;SDS011;50864;45.050;39.014;2023-05-21T03:00:41;5.85;;;3.10;;
64487;SDS011;50864;45.050;39.014;2023-05-21T03:03:07;7.93;;;2.70;;
64487;SDS011;50864;45.050;39.014;2023-05-21T03:05:34;9.07;;;3.00;;
64487;SDS011;50864;45.050;39.014;2023-05-21T03:08:01;4.75;;;2.10;;
64487;SDS011;50864;45.050;39.014;2023-05-21T03:10:26;6.43;;;2.90;;
64487;SDS011;50864;45.050;39.014;2023-05-21T03:12:52;8.27;;;2.80;;
64487;SDS011;50864;45.050;39.014;2023-05-21T03:15:19;7.72;;;2.80;;
64487;SDS011;50864;45.050;39.014;2023-05-21T03:17:48;5.95;;;2.83;;
64487;SDS011;50864;45.050;39.014;2023-05-21T03:20:15;6.18;;;2.90;;
64487;SDS011;50864;45.050;39.014;2023-05-21T03:22:42;9.50;;;3.15;;
64487;SDS011;50864;45.050;39.014;2023-05-21T03:25:09;10.75;;;2.60;;
64487;SDS011;50864;45.050;39.014;2023-05-21T03:27:35;5.90;;;3.10;;
64487;SDS011;50864;45.050;39.014;2023-05-21T03:30:01;6.37;;;2.92;;
64487;SDS011;50864;45.050;39.014;2023-05-21T03:32:29;5.93;;;2.53;;
64487;SDS011;50864;45.050;39.014;2023-05-21T03:34:55;5.32;;;2.60;;
64487;SDS011;50864;45.050;39.014;2023-05-21T03:37:20;5.97;;;3.00;;
64487;SDS011;50864;45.050;39.014;2023-05-21T03:39:46;4.75;;;2.70;;
64487;SDS011;50864;45.050;39.014;2023-05-21T03:42:12;3.83;;;2.55;;
64487;SDS011;50864;45.050;39.014;2023-05-21T03:44:39;5.82;;;2.80;;
64487;SDS011;50864;45.050;39.014;2023-05-21T03:47:09;4.55;;;2.60;;
64487;SDS011;50864;45.050;39.014;2023-05-21T03:49:35;6.97;;;2.97;;
64487;SDS011;50864;45.050;39.014;2023-05-21T03:52:01;6.28;;;3.40;;
64487;SDS011;50864;45.050;39.014;2023-05-21T03:54:27;6.05;;;2.92;;
64487;SDS011;50864;45.050;39.014;2023-05-21T03:56:53;4.57;;;2.15;;
64487;SDS011;50864;45.050;39.014;2023-05-21T03:59:20;4.40;;;2.45;;
64487;SDS011;50864;45.050;39.014;2023-05-21T04:01:46;5.50;;;2.62;;
64487;SDS011;50864;45.050;39.014;2023-05-21T04:04:12;7.30;;;2.92;;
64487;SDS011;50864;45.050;39.014;2023-05-21T04:06:38;5.18;;;2.92;;
64487;SDS011;50864;45.050;39.014;2023-05-21T04:09:07;7.22;;;2.55;;
64487;SDS011;50864;45.050;39.014;2023-05-21T04:11:34;6.40;;;2.85;;
64487;SDS011;50864;45.050;39.014;2023-05-21T04:13:59;5.90;;;2.65;;
64487;SDS011;50864;45.050;39.014;2023-05-21T04:16:25;6.22;;;3.08;;
64487;SDS011;50864;45.050;39.014;2023-05-21T04:18:52;7.07;;;3.17;;
64487;SDS011;50864;45.050;39.014;2023-05-21T04:21:20;4.72;;;2.75;;
64487;SDS011;50864;45.050;39.014;2023-05-21T04:23:46;6.87;;;2.35;;
64487;SDS011;50864;45.050;39.014;2023-05-21T04:26:13;4.75;;;2.60;;
64487;SDS011;50864;45.050;39.014;2023-05-21T04:28:41;5.18;;;2.92;;
64487;SDS011;50864;45.050;39.014;2023-05-21T04:31:07;5.07;;;2.40;;
64487;SDS011;50864;45.050;39.014;2023-05-21T04:33:33;3.83;;;2.28;;
64487;SDS011;50864;45.050;39.014;2023-05-21T04:36:00;5.18;;;2.70;;
64487;SDS011;50864;45.050;39.014;2023-05-21T04:38:26;4.25;;;2.42;;
64487;SDS011;50864;45.050;39.014;2023-05-21T04:40:52;5.60;;;2.65;;
64487;SDS011;50864;45.050;39.014;2023-05-21T04:43:18;5.57;;;2.60;;
64487;SDS011;50864;45.050;39.014;2023-05-21T04:45:50;5.75;;;2.53;;
64487;SDS011;50864;45.050;39.014;2023-05-21T04:48:17;6.55;;;2.47;;
64487;SDS011;50864;45.050;39.014;2023-05-21T04:50:43;7.35;;;2.60;;
64487;SDS011;50864;45.050;39.014;2023-05-21T04:53:08;9.13;;;2.70;;
64487;SDS011;50864;45.050;39.014;2023-05-21T04:55:35;4.20;;;2.58;;
64487;SDS011;50864;45.050;39.014;2023-05-21T04:58:04;4.70;;;2.35;;
64487;SDS011;50864;45.050;39.014;2023-05-21T05:00:31;7.87;;;2.95;;
64487;SDS011;50864;45.050;39.014;2023-05-21T05:02:58;6.72;;;2.70;;
64487;SDS011;50864;45.050;39.014;2023-05-21T05:05:24;7.20;;;2.97;;
64487;SDS011;50864;45.050;39.014;2023-05-21T05:07:50;3.83;;;2.05;;
64487;SDS011;50864;45.050;39.014;2023-05-21T05:10:16;5.93;;;2.25;;
64487;SDS011;50864;45.050;39.014;2023-05-21T05:12:42;6.22;;;2.42;;
64487;SDS011;50864;45.050;39.014;2023-05-21T05:15:08;6.30;;;2.37;;
64487;SDS011;50864;45.050;39.014;2023-05-21T05:17:35;6.93;;;2.12;;
64487;SDS011;50864;45.050;39.014;2023-05-21T05:20:01;3.58;;;1.85;;
64487;SDS011;50864;45.050;39.014;2023-05-21T05:22:27;5.00;;;2.00;;
64487;SDS011;50864;45.050;39.014;2023-05-21T05:24:53;3.70;;;2.20;;
64487;SDS011;50864;45.050;39.014;2023-05-21T05:27:19;5.75;;;2.17;;
64487;SDS011;50864;45.050;39.014;2023-05-21T05:29:45;4.32;;;2.05;;
64487;SDS011;50864;45.050;39.014;2023-05-21T05:32:11;3.75;;;2.00;;
64487;SDS011;50864;45.050;39.014;2023-05-21T05:34:37;5.72;;;2.90;;
64487;SDS011;50864;45.050;39.014;2023-05-21T05:37:03;4.12;;;2.00;;
64487;SDS011;50864;45.050;39.014;2023-05-21T05:39:29;5.05;;;2.40;;
64487;SDS011;50864;45.050;39.014;2023-05-21T05:41:55;5.25;;;2.35;;
64487;SDS011;50864;45.050;39.014;2023-05-21T05:44:21;5.00;;;2.22;;
64487;SDS011;50864;45.050;39.014;2023-05-21T05:46:47;3.45;;;1.90;;
64487;SDS011;50864;45.050;39.014;2023-05-21T05:49:12;4.40;;;2.08;;
64487;SDS011;50864;45.050;39.014;2023-05-21T05:51:39;5.68;;;2.67;;
64487;SDS011;50864;45.050;39.014;2023-05-21T05:54:05;5.15;;;2.40;;
64487;SDS011;50864;45.050;39.014;2023-05-21T05:56:35;4.50;;;2.40;;
64487;SDS011;50864;45.050;39.014;2023-05-21T05:59:02;4.80;;;2.40;;
64487;SDS011;50864;45.050;39.014;2023-05-21T06:01:29;4.45;;;2.25;;
64487;SDS011;50864;45.050;39.014;2023-05-21T06:03:56;4.12;;;2.22;;
64487;SDS011;50864;45.050;39.014;2023-05-21T06:06:22;6.20;;;2.45;;
64487;SDS011;50864;45.050;39.014;2023-05-21T06:08:48;3.87;;;2.30;;
64487;SDS011;50864;45.050;39.014;2023-05-21T06:11:14;5.32;;;2.50;;
64487;SDS011;50864;45.050;39.014;2023-05-21T06:13:41;5.57;;;2.50;;
64487;SDS011;50864;45.050;39.014;2023-05-21T06:16:08;4.37;;;2.40;;
64487;SDS011;50864;45.050;39.014;2023-05-21T06:18:34;6.35;;;2.80;;
64487;SDS011;50864;45.050;39.014;2023-05-21T06:21:00;7.00;;;2.55;;
64487;SDS011;50864;45.050;39.014;2023-05-21T06:23:26;6.85;;;2.70;;
64487;SDS011;50864;45.050;39.014;2023-05-21T06:25:53;5.80;;;2.62;;
64487;SDS011;50864;45.050;39.014;2023-05-21T06:28:19;4.85;;;2.60;;
64487;SDS011;50864;45.050;39.014;2023-05-21T06:30:44;7.15;;;2.60;;
64487;SDS011;50864;45.050;39.014;2023-05-21T06:33:11;6.18;;;2.80;;
64487;SDS011;50864;45.050;39.014;2023-05-21T06:35:36;6.93;;;2.35;;
64487;SDS011;50864;45.050;39.014;2023-05-21T06:38:05;6.55;;;2.67;;
64487;SDS011;50864;45.050;39.014;2023-05-21T06:40:31;6.32;;;2.25;;
64487;SDS011;50864;45.050;39.014;2023-05-21T06:42:57;4.43;;;2.20;;
64487;SDS011;50864;45.050;39.014;2023-05-21T06:45:41;4.22;;;2.20;;
64487;SDS011;50864;45.050;39.014;2023-05-21T06:48:08;5.82;;;2.25;;
64487;SDS011;50864;45.050;39.014;2023-05-21T06:50:34;7.12;;;2.50;;
64487;SDS011;50864;45.050;39.014;2023-05-21T06:53:00;6.90;;;2.30;;
64487;SDS011;50864;45.050;39.014;2023-05-21T06:55:26;5.10;;;2.30;;
64487;SDS011;50864;45.050;39.014;2023-05-21T06:57:53;5.57;;;2.03;;
64487;SDS011;50864;45.050;39.014;2023-05-21T07:00:19;3.97;;;2.05;;
64487;SDS011;50864;45.050;39.014;2023-05-21T07:02:45;5.57;;;2.30;;
64487;SDS011;50864;45.050;39.014;2023-05-21T07:05:11;3.12;;;2.12;;
64487;SDS011;50864;45.050;39.014;2023-05-21T07:07:37;4.57;;;2.20;;
64487;SDS011;50864;45.050;39.014;2023-05-21T07:10:03;4.90;;;2.33;;
64487;SDS011;50864;45.050;39.014;2023-05-21T07:12:29;6.37;;;2.50;;
64487;SDS011;50864;45.050;39.014;2023-05-21T07:14:56;5.78;;;2.22;;
64487;SDS011;50864;45.050;39.014;2023-05-21T07:17:22;4.97;;;2.17;;
64487;SDS011;50864;45.050;39.014;2023-05-21T07:19:47;6.53;;;2.62;;
64487;SDS011;50864;45.050;39.014;2023-05-21T07:22:13;6.32;;;2.50;;
64487;SDS011;50864;45.050;39.014;2023-05-21T07:24:40;4.20;;;2.08;;
64487;SDS011;50864;45.050;39.014;2023-05-21T07:27:06;6.68;;;2.85;;
64487;SDS011;50864;45.050;39.014;2023-05-21T07:29:33;6.60;;;2.92;;
64487;SDS011;50864;45.050;39.014;2023-05-21T07:32:00;7.47;;;3.60;;
64487;SDS011;50864;45.050;39.014;2023-05-21T07:34:26;5.53;;;2.37;;
64487;SDS011;50864;45.050;39.014;2023-05-21T07:36:53;6.20;;;2.42;;
64487;SDS011;50864;45.050;39.014;2023-05-21T07:39:20;5.55;;;2.85;;
64487;SDS011;50864;45.050;39.014;2023-05-21T07:41:48;4.05;;;2.35;;
64487;SDS011;50864;45.050;39.014;2023-05-21T07:44:14;4.10;;;2.55;;
64487;SDS011;50864;45.050;39.014;2023-05-21T07:46:41;6.25;;;2.72;;
64487;SDS011;50864;45.050;39.014;2023-05-21T07:49:08;5.55;;;3.00;;
64487;SDS011;50864;45.050;39.014;2023-05-21T07:51:41;5.75;;;2.87;;
64487;SDS011;50864;45.050;39.014;2023-05-21T07:54:08;4.28;;;2.58;;
64487;SDS011;50864;45.050;39.014;2023-05-21T07:56:34;3.70;;;2.20;;
64487;SDS011;50864;45.050;39.014;2023-05-21T07:59:01;5.18;;;2.58;;
64487;SDS011;50864;45.050;39.014;2023-05-21T08:01:27;5.47;;;2.42;;
64487;SDS011;50864;45.050;39.014;2023-05-21T08:03:56;5.32;;;2.40;;
64487;SDS011;50864;45.050;39.014;2023-05-21T08:06:24;4.60;;;2.33;;
64487;SDS011;50864;45.050;39.014;2023-05-21T08:08:51;4.62;;;2.53;;
64487;SDS011;50864;45.050;39.014;2023-05-21T08:11:19;7.05;;;2.87;;
64487;SDS011;50864;45.050;39.014;2023-05-21T08:13:46;7.05;;;2.60;;
64487;SDS011;50864;45.050;39.014;2023-05-21T08:16:12;4.70;;;2.50;;
64487;SDS011;50864;45.050;39.014;2023-05-21T08:18:38;4.87;;;2.62;;
64487;SDS011;50864;45.050;39.014;2023-05-21T08:21:04;7.03;;;2.70;;
64487;SDS011;50864;45.050;39.014;2023-05-21T08:23:30;5.15;;;2.33;;
64487;SDS011;50864;45.050;39.014;2023-05-21T08:25:57;5.80;;;2.47;;
64487;SDS011;50864;45.050;39.014;2023-05-21T08:28:24;6.00;;;2.78;;
64487;SDS011;50864;45.050;39.014;2023-05-21T08:30:52;6.35;;;2.80;;
64487;SDS011;50864;45.050;39.014;2023-05-21T08:33:20;5.60;;;2.65;;
64487;SDS011;50864;45.050;39.014;2023-05-21T08:35:46;7.43;;;2.85;;
64487;SDS011;50864;45.050;39.014;2023-05-21T08:38:14;5.05;;;2.33;;
64487;SDS011;50864;45.050;39.014;2023-05-21T08:40:42;5.25;;;2.65;;
64487;SDS011;50864;45.050;39.014;2023-05-21T08:43:08;4.60;;;2.67;;
64487;SDS011;50864;45.050;39.014;2023-05-21T08:45:40;6.63;;;2.70;;
64487;SDS011;50864;45.050;39.014;2023-05-21T08:48:08;7.43;;;2.87;;
64487;SDS011;50864;45.050;39.014;2023-05-21T08:50:35;9.70;;;2.70;;
64487;SDS011;50864;45.050;39.014;2023-05-21T08:53:01;4.53;;;2.40;;
64487;SDS011;50864;45.050;39.014;2023-05-21T08:55:27;6.65;;;3.22;;
64487;SDS011;50864;45.050;39.014;2023-05-21T08:57:53;4.50;;;2.42;;
64487;SDS011;50864;45.050;39.014;2023-05-21T09:00:19;5.40;;;2.80;;
64487;SDS011;50864;45.050;39.014;2023-05-21T09:02:46;6.40;;;2.83;;
64487;SDS011;50864;45.050;39.014;2023-05-21T09:05:12;4.90;;;2.60;;
64487;SDS011;50864;45.050;39.014;2023-05-21T09:07:43;4.80;;;2.40;;
64487;SDS011;50864;45.050;39.014;2023-05-21T09:10:12;5.18;;;2.70;;
64487;SDS011;50864;45.050;39.014;2023-05-21T09:12:39;7.05;;;3.42;;
64487;SDS011;50864;45.050;39.014;2023-05-21T09:15:05;6.12;;;3.10;;
64487;SDS011;50864;45.050;39.014;2023-05-21T09:17:32;11.45;;;3.12;;
64487;SDS011;50864;45.050;39.014;2023-05-21T09:22:44;8.93;;;2.85;;
64487;SDS011;50864;45.050;39.014;2023-05-21T09:25:11;5.68;;;2.53;;
64487;SDS011;50864;45.050;39.014;2023-05-21T09:27:37;10.43;;;2.75;;
64487;SDS011;50864;45.050;39.014;2023-05-21T09:30:04;8.35;;;2.80;;
64487;SDS011;50864;45.050;39.014;2023-05-21T09:32:30;6.22;;;2.75;;
64487;SDS011;50864;45.050;39.014;2023-05-21T09:34:56;5.65;;;2.40;;
64487;SDS011;50864;45.050;39.014;2023-05-21T09:37:23;6.25;;;2.42;;
64487;SDS011;50864;45.050;39.014;2023-05-21T09:39:48;6.15;;;2.85;;
64487;SDS011;50864;45.050;39.014;2023-05-21T09:42:14;3.90;;;2.70;;
64487;SDS011;50864;45.050;39.014;2023-05-21T09:44:44;5.25;;;2.20;;
64487;SDS011;50864;45.050;39.014;2023-05-21T09:47:09;4.60;;;2.42;;
64487;SDS011;50864;45.050;39.014;2023-05-21T09:49:35;3.78;;;2.25;;
64487;SDS011;50864;45.050;39.014;2023-05-21T09:52:02;5.10;;;2.80;;
64487;SDS011;50864;45.050;39.014;2023-05-21T09:54:31;6.05;;;2.47;;
64487;SDS011;50864;45.050;39.014;2023-05-21T09:57:00;5.60;;;2.45;;
64487;SDS011;50864;45.050;39.014;2023-05-21T09:59:38;10.57;;;4.20;;
64487;SDS011;50864;45.050;39.014;2023-05-21T10:02:18;5.03;;;2.30;;
64487;SDS011;50864;45.050;39.014;2023-05-21T10:04:44;5.45;;;2.75;;
64487;SDS011;50864;45.050;39.014;2023-05-21T10:07:12;6.70;;;3.03;;
64487;SDS011;50864;45.050;39.014;2023-05-21T10:09:38;5.62;;;2.40;;
64487;SDS011;50864;45.050;39.014;2023-05-21T10:12:04;6.12;;;2.78;;
64487;SDS011;50864;45.050;39.014;2023-05-21T10:14:30;7.53;;;3.10;;
64487;SDS011;50864;45.050;39.014;2023-05-21T10:16:57;6.97;;;2.90;;
64487;SDS011;50864;45.050;39.014;2023-05-21T10:19:23;3.92;;;2.30;;
64487;SDS011;50864;45.050;39.014;2023-05-21T10:21:49;6.53;;;2.70;;
64487;SDS011;50864;45.050;39.014;2023-05-21T10:24:16;6.25;;;2.58;;
64487;SDS011;50864;45.050;39.014;2023-05-21T10:26:42;5.30;;;2.58;;
64487;SDS011;50864;45.050;39.014;2023-05-21T10:29:09;6.65;;;2.65;;
64487;SDS011;50864;45.050;39.014;2023-05-21T10:31:34;9.30;;;3.00;;
64487;SDS011;50864;45.050;39.014;2023-05-21T10:34:00;5.55;;;2.87;;
64487;SDS011;50864;45.050;39.014;2023-05-21T10:36:29;5.62;;;2.58;;
64487;SDS011;50864;45.050;39.014;2023-05-21T10:38:55;6.07;;;2.87;;
64487;SDS011;50864;45.050;39.014;2023-05-21T10:41:23;7.93;;;2.75;;
64487;SDS011;50864;45.050;39.014;2023-05-21T10:44:01;5.30;;;2.60;;
64487;SDS011;50864;45.050;39.014;2023-05-21T10:51:33;5.95;;;3.08;;
64487;SDS011;50864;45.050;39.014;2023-05-21T10:59:24;7.57;;;2.87;;
64487;SDS011;50864;45.050;39.014;2023-05-21T11:01:53;6.05;;;3.20;;
64487;SDS011;50864;45.050;39.014;2023-05-21T11:04:21;9.25;;;3.95;;
64487;SDS011;50864;45.050;39.014;2023-05-21T11:06:48;8.82;;;3.50;;
64487;SDS011;50864;45.050;39.014;2023-05-21T11:09:14;4.93;;;2.83;;
64487;SDS011;50864;45.050;39.014;2023-05-21T11:11:41;8.20;;;3.20;;
64487;SDS011;50864;45.050;39.014;2023-05-21T11:17:11;8.15;;;3.10;;
64487;SDS011;50864;45.050;39.014;2023-05-21T11:19:38;5.43;;;3.12;;
64487;SDS011;50864;45.050;39.014;2023-05-21T11:22:20;6.03;;;3.33;;
64487;SDS011;50864;45.050;39.014;2023-05-21T11:24:47;7.00;;;3.47;;
64487;SDS011;50864;45.050;39.014;2023-05-21T11:27:13;8.02;;;3.50;;
64487;SDS011;50864;45.050;39.014;2023-05-21T11:29:54;6.82;;;3.37;;
64487;SDS011;50864;45.050;39.014;2023-05-21T11:32:20;5.70;;;2.95;;
64487;SDS011;50864;45.050;39.014;2023-05-21T11:34:48;5.53;;;3.00;;
64487;SDS011;50864;45.050;39.014;2023-05-21T11:39:52;7.93;;;3.50;;
64487;SDS011;50864;45.050;39.014;2023-05-21T11:44:54;7.78;;;3.90;;
64487;SDS011;50864;45.050;39.014;2023-05-21T11:47:20;5.85;;;3.33;;
64487;SDS011;50864;45.050;39.014;2023-05-21T11:49:46;9.27;;;3.42;;
64487;SDS011;50864;45.050;39.014;2023-05-21T11:52:14;10.50;;;3.97;;
64487;SDS011;50864;45.050;39.014;2023-05-21T11:54:44;7.95;;;3.50;;
64487;SDS011;50864;45.050;39.014;2023-05-21T11:57:12;5.68;;;3.05;;
64487;SDS011;50864;45.050;39.014;2023-05-21T11:59:43;7.78;;;3.55;;
64487;SDS011;50864;45.050;39.014;2023-05-21T12:02:12;6.62;;;3.00;;
64487;SDS011;50864;45.050;39.014;2023-05-21T12:04:38;6.03;;;3.37;;
64487;SDS011;50864;45.050;39.014;2023-05-21T12:07:07;6.35;;;3.25;;
64487;SDS011;50864;45.050;39.014;2023-05-21T12:09:39;8.65;;;3.10;;
64487;SDS011;50864;45.050;39.014;2023-05-21T12:12:09;6.90;;;3.33;;
64487;SDS011;50864;45.050;39.014;2023-05-21T12:14:36;8.50;;;5.10;;
64487;SDS011;50864;45.050;39.014;2023-05-21T12:17:05;5.55;;;3.30;;
64487;SDS011;50864;45.050;39.014;2023-05-21T12:19:32;5.43;;;2.67;;
64487;SDS011;50864;45.050;39.014;2023-05-21T12:22:00;4.95;;;2.53;;
64487;SDS011;50864;45.050;39.014;2023-05-21T12:24:26;5.45;;;3.03;;
64487;SDS011;50864;45.050;39.014;2023-05-21T12:26:52;4.15;;;2.65;;
64487;SDS011;50864;45.050;39.014;2023-05-21T12:29:19;6.05;;;3.05;;
64487;SDS011;50864;45.050;39.014;2023-05-21T12:31:46;7.70;;;3.58;;
64487;SDS011;50864;45.050;39.014;2023-05-21T12:34:12;9.63;;;3.42;;
64487;SDS011;50864;45.050;39.014;2023-05-21T12:36:41;6.18;;;3.55;;
64487;SDS011;50864;45.050;39.014;2023-05-21T12:39:10;10.68;;;4.00;;
64487;SDS011;50864;45.050;39.014;2023-05-21T12:41:36;9.48;;;6.07;;
64487;SDS011;50864;45.050;39.014;2023-05-21T12:44:02;9.32;;;6.10;;
64487;SDS011;50864;45.050;39.014;2023-05-21T12:46:30;11.15;;;5.97;;
64487;SDS011;50864;45.050;39.014;2023-05-21T12:48:56;11.55;;;6.93;;
64487;SDS011;50864;45.050;39.014;2023-05-21T12:51:21;20.12;;;9.40;;
64487;SDS011;50864;45.050;39.014;2023-05-21T12:53:47;17.55;;;12.50;;
64487;SDS011;50864;45.050;39.014;2023-05-21T12:56:13;16.15;;;9.27;;
64487;SDS011;50864;45.050;39.014;2023-05-21T12:58:40;7.78;;;3.62;;
64487;SDS011;50864;45.050;39.014;2023-05-21T13:01:09;10.05;;;4.47;;
64487;SDS011;50864;45.050;39.014;2023-05-21T13:03:39;8.35;;;3.80;;
64487;SDS011;50864;45.050;39.014;2023-05-21T13:06:06;7.87;;;3.20;;
64487;SDS011;50864;45.050;39.014;2023-05-21T13:08:32;7.80;;;4.05;;
64487;SDS011;50864;45.050;39.014;2023-05-21T13:11:01;8.32;;;3.35;;
64487;SDS011;50864;45.050;39.014;2023-05-21T13:13:26;7.68;;;2.85;;
64487;SDS011;50864;45.050;39.014;2023-05-21T13:15:53;6.75;;;3.22;;
64487;SDS011;50864;45.050;39.014;2023-05-21T13:18:19;11.77;;;3.10;;
64487;SDS011;50864;45.050;39.014;2023-05-21T13:20:45;6.07;;;3.42;;
64487;SDS011;50864;45.050;39.014;2023-05-21T13:23:11;7.25;;;3.28;;
64487;SDS011;50864;45.050;39.014;2023-05-21T13:25:37;7.45;;;3.22;;
64487;SDS011;50864;45.050;39.014;2023-05-21T13:28:03;6.53;;;3.40;;
64487;SDS011;50864;45.050;39.014;2023-05-21T13:30:34;7.35;;;3.22;;
64487;SDS011;50864;45.050;39.014;2023-05-21T13:33:01;9.27;;;4.22;;
64487;SDS011;50864;45.050;39.014;2023-05-21T13:35:26;6.60;;;3.60;;
64487;SDS011;50864;45.050;39.014;2023-05-21T13:37:52;8.23;;;3.33;;
64487;SDS011;50864;45.050;39.014;2023-05-21T13:40:18;7.75;;;3.83;;
64487;SDS011;50864;45.050;39.014;2023-05-21T13:42:45;8.05;;;3.53;;
64487;SDS011;50864;45.050;39.014;2023-05-21T13:45:12;6.03;;;3.10;;
64487;SDS011;50864;45.050;39.014;2023-05-21T13:47:39;6.35;;;3.05;;
64487;SDS011;50864;45.050;39.014;2023-05-21T13:50:04;10.45;;;3.62;;
64487;SDS011;50864;45.050;39.014;2023-05-21T13:52:30;7.53;;;4.30;;
64487;SDS011;50864;45.050;39.014;2023-05-21T13:54:56;9.20;;;3.75;;
64487;SDS011;50864;45.050;39.014;2023-05-21T13:57:24;9.40;;;3.67;;
64487;SDS011;50864;45.050;39.014;2023-05-21T13:59:51;6.32;;;3.17;;
64487;SDS011;50864;45.050;39.014;2023-05-21T14:02:17;7.32;;;3.60;;
64487;SDS011;50864;45.050;39.014;2023-05-21T14:04:43;7.45;;;3.22;;
64487;SDS011;50864;45.050;39.014;2023-05-21T14:07:09;5.93;;;2.95;;
64487;SDS011;50864;45.050;39.014;2023-05-21T14:09:36;21.20;;;4.37;;
64487;SDS011;50864;45.050;39.014;2023-05-21T14:12:03;5.85;;;3.50;;
64487;SDS011;50864;45.050;39.014;2023-05-21T14:14:29;7.93;;;3.60;;
64487;SDS011;50864;45.050;39.014;2023-05-21T14:16:55;9.93;;;5.05;;
64487;SDS011;50864;45.050;39.014;2023-05-21T14:19:21;8.10;;;4.18;;
64487;SDS011;50864;45.050;39.014;2023-05-21T14:21:47;7.80;;;3.40;;
64487;SDS011;50864;45.050;39.014;2023-05-21T14:24:15;7.75;;;3.50;;
64487;SDS011;50864;45.050;39.014;2023-05-21T14:26:41;11.68;;;3.70;;
64487;SDS011;50864;45.050;39.014;2023-05-21T14:29:07;8.27;;;4.12;;
64487;SDS011;50864;45.050;39.014;2023-05-21T14:31:33;8.45;;;3.70;;
64487;SDS011;50864;45.050;39.014;2023-05-21T14:33:59;7.75;;;3.78;;
64487;SDS011;50864;45.050;39.014;2023-05-21T14:36:27;8.63;;;5.15;;
64487;SDS011;50864;45.050;39.014;2023-05-21T14:38:52;7.85;;;3.45;;
64487;SDS011;50864;45.050;39.014;2023-05-21T14:41:18;11.07;;;4.47;;
64487;SDS011;50864;45.050;39.014;2023-05-21T14:43:44;7.28;;;4.00;;
64487;SDS011;50864;45.050;39.014;2023-05-21T14:46:09;8.60;;;3.75;;
64487;SDS011;50864;45.050;39.014;2023-05-21T14:48:35;7.53;;;3.87;;
64487;SDS011;50864;45.050;39.014;2023-05-21T14:51:01;10.40;;;4.00;;
64487;SDS011;50864;45.050;39.014;2023-05-21T14:53:27;8.13;;;3.33;;
64487;SDS011;50864;45.050;39.014;2023-05-21T14:55:53;7.28;;;3.37;;
64487;SDS011;50864;45.050;39.014;2023-05-21T14:58:18;8.45;;;3.62;;